sensor_id;sensor_type;location;lat;lon;timestamp;P1;durP1;ratioP1;P2;durP2;ratioP2
59388;SDS011;51830;45.202;19.720;2023-04-25T00:01:20;16.75;;;6.03;;
59388;SDS011;51830;45.202;19.720;2023-04-25T00:03:47;17.55;;;6.68;;
59388;SDS011;51830;45.202;19.720;2023-04-25T00:06:13;17.83;;;6.38;;
59388;SDS011;51830;45.202;19.720;2023-04-25T00:08:40;17.48;;;6.10;;
59388;SDS011;51830;45.202;19.720;2023-04-25T00:11:06;18.20;;;5.78;;
59388;SDS011;51830;45.202;19.720;2023-04-25T00:13:32;17.20;;;5.68;;
59388;SDS011;51830;45.202;19.720;2023-04-25T00:15:59;17.55;;;6.03;;
59388;SDS011;51830;45.202;19.720;2023-04-25T00:18:25;17.63;;;6.30;;
59388;SDS011;51830;45.202;19.720;2023-04-25T00:20:55;19.15;;;6.85;;
59388;SDS011;51830;45.202;19.720;2023-04-25T00:23:21;18.13;;;6.35;;
59388;SDS011;51830;45.202;19.720;2023-04-25T00:25:49;18.25;;;6.85;;
59388;SDS011;51830;45.202;19.720;2023-04-25T00:28:15;16.23;;;5.80;;
59388;SDS011;51830;45.202;19.720;2023-04-25T00:30:41;17.02;;;5.68;;
59388;SDS011;51830;45.202;19.720;2023-04-25T00:33:08;18.55;;;6.18;;
59388;SDS011;51830;45.202;19.720;2023-04-25T00:35:35;19.40;;;6.45;;
59388;SDS011;51830;45.202;19.720;2023-04-25T00:38:01;16.25;;;5.25;;
59388;SDS011;51830;45.202;19.720;2023-04-25T00:40:27;17.90;;;5.63;;
59388;SDS011;51830;45.202;19.720;2023-04-25T00:42:53;18.27;;;6.07;;
59388;SDS011;51830;45.202;19.720;2023-04-25T00:45:20;17.63;;;5.45;;
59388;SDS011;51830;45.202;19.720;2023-04-25T00:47:46;18.52;;;5.97;;
59388;SDS011;51830;45.202;19.720;2023-04-25T00:50:13;16.83;;;5.68;;
59388;SDS011;51830;45.202;19.720;2023-04-25T00:52:40;16.25;;;4.88;;
59388;SDS011;51830;45.202;19.720;2023-04-25T00:55:07;15.57;;;5.28;;
59388;SDS011;51830;45.202;19.720;2023-04-25T00:57:33;15.48;;;5.32;;
59388;SDS011;51830;45.202;19.720;2023-04-25T01:00:00;14.05;;;3.92;;
59388;SDS011;51830;45.202;19.720;2023-04-25T01:02:26;14.48;;;4.45;;
59388;SDS011;51830;45.202;19.720;2023-04-25T01:04:53;14.75;;;4.15;;
59388;SDS011;51830;45.202;19.720;2023-04-25T01:07:19;13.27;;;4.13;;
59388;SDS011;51830;45.202;19.720;2023-04-25T01:09:46;14.23;;;3.65;;
59388;SDS011;51830;45.202;19.720;2023-04-25T01:12:12;14.30;;;3.95;;
59388;SDS011;51830;45.202;19.720;2023-04-25T01:14:39;16.48;;;4.15;;
59388;SDS011;51830;45.202;19.720;2023-04-25T01:17:06;13.98;;;3.90;;
59388;SDS011;51830;45.202;19.720;2023-04-25T01:19:32;12.88;;;3.88;;
59388;SDS011;51830;45.202;19.720;2023-04-25T01:21:59;13.45;;;3.90;;
59388;SDS011;51830;45.202;19.720;2023-04-25T01:24:25;13.55;;;3.78;;
59388;SDS011;51830;45.202;19.720;2023-04-25T01:26:52;16.42;;;3.78;;
59388;SDS011;51830;45.202;19.720;2023-04-25T01:29:21;13.32;;;3.78;;
59388;SDS011;51830;45.202;19.720;2023-04-25T01:31:48;12.50;;;3.70;;
59388;SDS011;51830;45.202;19.720;2023-04-25T01:34:14;12.55;;;3.38;;
59388;SDS011;51830;45.202;19.720;2023-04-25T01:36:41;12.32;;;3.08;;
59388;SDS011;51830;45.202;19.720;2023-04-25T01:39:07;13.05;;;3.53;;
59388;SDS011;51830;45.202;19.720;2023-04-25T01:41:33;12.98;;;3.47;;
59388;SDS011;51830;45.202;19.720;2023-04-25T01:44:00;12.52;;;3.67;;
59388;SDS011;51830;45.202;19.720;2023-04-25T01:46:27;13.40;;;3.67;;
59388;SDS011;51830;45.202;19.720;2023-04-25T01:48:53;10.70;;;3.00;;
59388;SDS011;51830;45.202;19.720;2023-04-25T01:51:19;13.70;;;3.70;;
59388;SDS011;51830;45.202;19.720;2023-04-25T01:53:46;13.13;;;3.55;;
59388;SDS011;51830;45.202;19.720;2023-04-25T01:56:12;14.13;;;4.38;;
59388;SDS011;51830;45.202;19.720;2023-04-25T01:58:38;13.98;;;4.28;;
59388;SDS011;51830;45.202;19.720;2023-04-25T02:01:04;12.75;;;3.40;;
59388;SDS011;51830;45.202;19.720;2023-04-25T02:03:31;13.05;;;3.72;;
59388;SDS011;51830;45.202;19.720;2023-04-25T02:05:58;12.95;;;4.25;;
59388;SDS011;51830;45.202;19.720;2023-04-25T02:08:25;15.48;;;4.35;;
59388;SDS011;51830;45.202;19.720;2023-04-25T02:10:52;13.23;;;4.22;;
59388;SDS011;51830;45.202;19.720;2023-04-25T02:13:18;12.45;;;3.50;;
59388;SDS011;51830;45.202;19.720;2023-04-25T02:15:44;15.40;;;4.35;;
59388;SDS011;51830;45.202;19.720;2023-04-25T02:18:10;13.55;;;4.25;;
59388;SDS011;51830;45.202;19.720;2023-04-25T02:20:37;14.48;;;4.57;;
59388;SDS011;51830;45.202;19.720;2023-04-25T02:23:03;15.50;;;4.55;;
59388;SDS011;51830;45.202;19.720;2023-04-25T02:25:30;13.30;;;3.95;;
59388;SDS011;51830;45.202;19.720;2023-04-25T02:27:56;16.33;;;4.40;;
59388;SDS011;51830;45.202;19.720;2023-04-25T02:30:22;13.07;;;3.78;;
59388;SDS011;51830;45.202;19.720;2023-04-25T02:32:49;17.73;;;4.78;;
59388;SDS011;51830;45.202;19.720;2023-04-25T02:35:15;13.15;;;3.92;;
59388;SDS011;51830;45.202;19.720;2023-04-25T02:37:42;13.55;;;3.72;;
59388;SDS011;51830;45.202;19.720;2023-04-25T02:40:08;14.10;;;3.95;;
59388;SDS011;51830;45.202;19.720;2023-04-25T02:42:35;14.43;;;4.75;;
59388;SDS011;51830;45.202;19.720;2023-04-25T02:45:01;14.60;;;3.92;;
59388;SDS011;51830;45.202;19.720;2023-04-25T02:47:28;10.98;;;3.05;;
59388;SDS011;51830;45.202;19.720;2023-04-25T02:49:54;10.07;;;2.92;;
59388;SDS011;51830;45.202;19.720;2023-04-25T02:52:21;8.88;;;2.50;;
59388;SDS011;51830;45.202;19.720;2023-04-25T02:54:47;8.65;;;2.40;;
59388;SDS011;51830;45.202;19.720;2023-04-25T02:57:13;9.73;;;2.95;;
59388;SDS011;51830;45.202;19.720;2023-04-25T02:59:40;6.57;;;2.05;;
59388;SDS011;51830;45.202;19.720;2023-04-25T03:02:06;8.43;;;2.78;;
59388;SDS011;51830;45.202;19.720;2023-04-25T03:04:32;9.70;;;2.72;;
59388;SDS011;51830;45.202;19.720;2023-04-25T03:06:59;9.48;;;2.63;;
59388;SDS011;51830;45.202;19.720;2023-04-25T03:09:26;10.85;;;2.70;;
59388;SDS011;51830;45.202;19.720;2023-04-25T03:11:52;11.68;;;2.97;;
59388;SDS011;51830;45.202;19.720;2023-04-25T03:14:18;10.18;;;2.63;;
59388;SDS011;51830;45.202;19.720;2023-04-25T03:16:45;10.60;;;2.97;;
59388;SDS011;51830;45.202;19.720;2023-04-25T03:19:11;21.60;;;3.72;;
59388;SDS011;51830;45.202;19.720;2023-04-25T03:21:37;9.55;;;2.63;;
59388;SDS011;51830;45.202;19.720;2023-04-25T03:24:05;11.55;;;3.28;;
59388;SDS011;51830;45.202;19.720;2023-04-25T03:26:31;9.60;;;2.92;;
59388;SDS011;51830;45.202;19.720;2023-04-25T03:28:58;11.60;;;3.33;;
59388;SDS011;51830;45.202;19.720;2023-04-25T03:31:24;9.40;;;2.70;;
59388;SDS011;51830;45.202;19.720;2023-04-25T03:33:50;7.75;;;2.55;;
59388;SDS011;51830;45.202;19.720;2023-04-25T03:36:17;11.32;;;2.95;;
59388;SDS011;51830;45.202;19.720;2023-04-25T03:38:43;8.35;;;2.47;;
59388;SDS011;51830;45.202;19.720;2023-04-25T03:41:09;10.45;;;3.10;;
59388;SDS011;51830;45.202;19.720;2023-04-25T03:43:36;7.85;;;2.60;;
59388;SDS011;51830;45.202;19.720;2023-04-25T03:46:02;9.13;;;2.45;;
59388;SDS011;51830;45.202;19.720;2023-04-25T03:48:28;10.90;;;3.00;;
59388;SDS011;51830;45.202;19.720;2023-04-25T03:50:55;6.22;;;2.30;;
59388;SDS011;51830;45.202;19.720;2023-04-25T03:53:21;8.18;;;2.42;;
59388;SDS011;51830;45.202;19.720;2023-04-25T03:55:47;11.80;;;3.08;;
59388;SDS011;51830;45.202;19.720;2023-04-25T03:58:14;8.00;;;2.28;;
59388;SDS011;51830;45.202;19.720;2023-04-25T04:00:40;10.95;;;2.47;;
59388;SDS011;51830;45.202;19.720;2023-04-25T04:03:06;7.32;;;2.28;;
59388;SDS011;51830;45.202;19.720;2023-04-25T04:05:32;8.73;;;2.40;;
59388;SDS011;51830;45.202;19.720;2023-04-25T04:07:58;9.00;;;2.65;;
59388;SDS011;51830;45.202;19.720;2023-04-25T04:10:25;8.23;;;2.55;;
59388;SDS011;51830;45.202;19.720;2023-04-25T04:12:51;7.05;;;2.35;;
59388;SDS011;51830;45.202;19.720;2023-04-25T04:15:17;13.93;;;3.20;;
59388;SDS011;51830;45.202;19.720;2023-04-25T04:17:44;9.07;;;2.45;;
59388;SDS011;51830;45.202;19.720;2023-04-25T04:20:12;9.05;;;2.55;;
59388;SDS011;51830;45.202;19.720;2023-04-25T04:22:38;8.35;;;2.45;;
59388;SDS011;51830;45.202;19.720;2023-04-25T04:25:05;9.38;;;2.70;;
59388;SDS011;51830;45.202;19.720;2023-04-25T04:27:31;9.85;;;2.53;;
59388;SDS011;51830;45.202;19.720;2023-04-25T04:29:58;10.32;;;2.78;;
59388;SDS011;51830;45.202;19.720;2023-04-25T04:32:24;8.68;;;2.50;;
59388;SDS011;51830;45.202;19.720;2023-04-25T04:34:51;9.70;;;2.67;;
59388;SDS011;51830;45.202;19.720;2023-04-25T04:37:17;11.85;;;3.15;;
59388;SDS011;51830;45.202;19.720;2023-04-25T04:39:43;11.35;;;2.65;;
59388;SDS011;51830;45.202;19.720;2023-04-25T04:42:10;11.25;;;2.90;;
59388;SDS011;51830;45.202;19.720;2023-04-25T04:44:36;12.60;;;3.47;;
59388;SDS011;51830;45.202;19.720;2023-04-25T04:47:04;17.00;;;2.83;;
59388;SDS011;51830;45.202;19.720;2023-04-25T04:49:31;9.95;;;3.10;;
59388;SDS011;51830;45.202;19.720;2023-04-25T04:51:58;10.35;;;2.88;;
59388;SDS011;51830;45.202;19.720;2023-04-25T04:54:25;10.63;;;2.90;;
59388;SDS011;51830;45.202;19.720;2023-04-25T04:56:52;11.02;;;2.97;;
59388;SDS011;51830;45.202;19.720;2023-04-25T04:59:18;9.80;;;2.92;;
59388;SDS011;51830;45.202;19.720;2023-04-25T05:01:44;10.38;;;2.90;;
59388;SDS011;51830;45.202;19.720;2023-04-25T05:04:12;11.77;;;3.70;;
59388;SDS011;51830;45.202;19.720;2023-04-25T05:06:38;10.73;;;2.58;;
59388;SDS011;51830;45.202;19.720;2023-04-25T05:09:04;10.55;;;2.78;;
59388;SDS011;51830;45.202;19.720;2023-04-25T05:11:31;10.02;;;2.65;;
59388;SDS011;51830;45.202;19.720;2023-04-25T05:13:57;10.00;;;2.55;;
59388;SDS011;51830;45.202;19.720;2023-04-25T05:16:23;9.63;;;2.88;;
59388;SDS011;51830;45.202;19.720;2023-04-25T05:18:50;9.95;;;2.50;;
59388;SDS011;51830;45.202;19.720;2023-04-25T05:21:16;9.75;;;2.72;;
59388;SDS011;51830;45.202;19.720;2023-04-25T05:23:43;9.95;;;2.95;;
59388;SDS011;51830;45.202;19.720;2023-04-25T05:26:09;7.75;;;2.58;;
59388;SDS011;51830;45.202;19.720;2023-04-25T05:28:39;7.10;;;2.33;;
59388;SDS011;51830;45.202;19.720;2023-04-25T05:31:06;9.82;;;2.78;;
59388;SDS011;51830;45.202;19.720;2023-04-25T05:33:32;8.52;;;2.50;;
59388;SDS011;51830;45.202;19.720;2023-04-25T05:35:58;8.02;;;2.50;;
59388;SDS011;51830;45.202;19.720;2023-04-25T05:38:25;8.85;;;2.67;;
59388;SDS011;51830;45.202;19.720;2023-04-25T05:40:52;6.72;;;2.42;;
59388;SDS011;51830;45.202;19.720;2023-04-25T05:43:18;5.75;;;2.08;;
59388;SDS011;51830;45.202;19.720;2023-04-25T05:45:44;8.15;;;2.40;;
59388;SDS011;51830;45.202;19.720;2023-04-25T05:48:11;6.40;;;1.98;;
59388;SDS011;51830;45.202;19.720;2023-04-25T05:50:38;8.23;;;2.17;;
59388;SDS011;51830;45.202;19.720;2023-04-25T05:53:04;9.68;;;2.70;;
59388;SDS011;51830;45.202;19.720;2023-04-25T05:55:31;10.00;;;2.70;;
59388;SDS011;51830;45.202;19.720;2023-04-25T05:57:57;10.85;;;2.80;;
59388;SDS011;51830;45.202;19.720;2023-04-25T06:00:23;9.07;;;2.53;;
59388;SDS011;51830;45.202;19.720;2023-04-25T06:02:50;7.40;;;2.13;;
59388;SDS011;51830;45.202;19.720;2023-04-25T06:05:16;7.35;;;2.30;;
59388;SDS011;51830;45.202;19.720;2023-04-25T06:07:42;9.45;;;2.22;;
59388;SDS011;51830;45.202;19.720;2023-04-25T06:10:09;8.43;;;2.22;;
59388;SDS011;51830;45.202;19.720;2023-04-25T06:12:38;5.30;;;2.00;;
59388;SDS011;51830;45.202;19.720;2023-04-25T06:15:05;6.97;;;2.22;;
59388;SDS011;51830;45.202;19.720;2023-04-25T06:17:32;11.75;;;2.70;;
59388;SDS011;51830;45.202;19.720;2023-04-25T06:19:58;7.05;;;2.20;;
59388;SDS011;51830;45.202;19.720;2023-04-25T06:22:24;7.55;;;2.20;;
59388;SDS011;51830;45.202;19.720;2023-04-25T06:24:51;6.30;;;2.20;;
59388;SDS011;51830;45.202;19.720;2023-04-25T06:27:17;9.50;;;2.38;;
59388;SDS011;51830;45.202;19.720;2023-04-25T06:29:43;8.07;;;2.35;;
59388;SDS011;51830;45.202;19.720;2023-04-25T06:32:10;5.18;;;2.20;;
59388;SDS011;51830;45.202;19.720;2023-04-25T06:34:36;7.22;;;2.38;;
59388;SDS011;51830;45.202;19.720;2023-04-25T06:37:02;12.23;;;2.67;;
59388;SDS011;51830;45.202;19.720;2023-04-25T06:39:28;7.90;;;1.92;;
59388;SDS011;51830;45.202;19.720;2023-04-25T06:41:55;8.82;;;2.65;;
59388;SDS011;51830;45.202;19.720;2023-04-25T06:44:21;9.15;;;2.55;;
59388;SDS011;51830;45.202;19.720;2023-04-25T06:46:49;10.85;;;3.00;;
59388;SDS011;51830;45.202;19.720;2023-04-25T06:49:15;11.35;;;2.72;;
59388;SDS011;51830;45.202;19.720;2023-04-25T06:51:41;10.35;;;2.42;;
59388;SDS011;51830;45.202;19.720;2023-04-25T06:54:07;7.60;;;2.30;;
59388;SDS011;51830;45.202;19.720;2023-04-25T06:56:34;8.80;;;2.45;;
59388;SDS011;51830;45.202;19.720;2023-04-25T06:59:00;8.52;;;2.22;;
59388;SDS011;51830;45.202;19.720;2023-04-25T07:01:26;9.27;;;2.17;;
59388;SDS011;51830;45.202;19.720;2023-04-25T07:03:53;8.35;;;2.53;;
59388;SDS011;51830;45.202;19.720;2023-04-25T07:06:19;10.63;;;2.55;;
59388;SDS011;51830;45.202;19.720;2023-04-25T07:08:45;6.93;;;2.20;;
59388;SDS011;51830;45.202;19.720;2023-04-25T07:11:12;8.60;;;2.35;;
59388;SDS011;51830;45.202;19.720;2023-04-25T07:13:38;10.18;;;2.22;;
59388;SDS011;51830;45.202;19.720;2023-04-25T07:16:04;7.43;;;2.10;;
59388;SDS011;51830;45.202;19.720;2023-04-25T07:18:30;6.63;;;1.92;;
59388;SDS011;51830;45.202;19.720;2023-04-25T07:20:57;11.65;;;2.25;;
59388;SDS011;51830;45.202;19.720;2023-04-25T07:23:23;5.20;;;1.98;;
59388;SDS011;51830;45.202;19.720;2023-04-25T07:25:49;8.32;;;2.28;;
59388;SDS011;51830;45.202;19.720;2023-04-25T07:28:15;5.75;;;1.90;;
59388;SDS011;51830;45.202;19.720;2023-04-25T07:30:41;6.88;;;2.22;;
59388;SDS011;51830;45.202;19.720;2023-04-25T07:33:08;8.13;;;2.45;;
59388;SDS011;51830;45.202;19.720;2023-04-25T07:35:34;7.20;;;2.22;;
59388;SDS011;51830;45.202;19.720;2023-04-25T07:38:01;8.10;;;2.33;;
59388;SDS011;51830;45.202;19.720;2023-04-25T07:40:27;8.30;;;2.35;;
59388;SDS011;51830;45.202;19.720;2023-04-25T07:42:54;5.55;;;1.95;;
59388;SDS011;51830;45.202;19.720;2023-04-25T07:45:20;8.65;;;2.28;;
59388;SDS011;51830;45.202;19.720;2023-04-25T07:47:46;8.57;;;2.40;;
59388;SDS011;51830;45.202;19.720;2023-04-25T07:50:12;7.57;;;2.35;;
59388;SDS011;51830;45.202;19.720;2023-04-25T07:52:38;7.97;;;2.20;;
59388;SDS011;51830;45.202;19.720;2023-04-25T07:55:04;6.82;;;2.08;;
59388;SDS011;51830;45.202;19.720;2023-04-25T07:57:31;6.25;;;2.05;;
59388;SDS011;51830;45.202;19.720;2023-04-25T07:59:57;7.00;;;2.17;;
59388;SDS011;51830;45.202;19.720;2023-04-25T08:02:23;9.63;;;2.40;;
59388;SDS011;51830;45.202;19.720;2023-04-25T08:04:51;7.43;;;2.40;;
59388;SDS011;51830;45.202;19.720;2023-04-25T08:07:17;12.18;;;2.38;;
59388;SDS011;51830;45.202;19.720;2023-04-25T08:09:43;7.15;;;2.30;;
59388;SDS011;51830;45.202;19.720;2023-04-25T08:12:10;7.93;;;2.35;;
59388;SDS011;51830;45.202;19.720;2023-04-25T08:14:36;7.03;;;2.05;;
59388;SDS011;51830;45.202;19.720;2023-04-25T08:17:04;5.85;;;1.92;;
59388;SDS011;51830;45.202;19.720;2023-04-25T08:19:30;6.82;;;2.25;;
59388;SDS011;51830;45.202;19.720;2023-04-25T08:21:57;8.10;;;2.33;;
59388;SDS011;51830;45.202;19.720;2023-04-25T08:24:23;8.27;;;2.28;;
59388;SDS011;51830;45.202;19.720;2023-04-25T08:26:49;7.60;;;2.20;;
59388;SDS011;51830;45.202;19.720;2023-04-25T08:29:15;5.07;;;1.83;;
59388;SDS011;51830;45.202;19.720;2023-04-25T08:31:42;6.75;;;2.17;;
59388;SDS011;51830;45.202;19.720;2023-04-25T08:34:08;7.40;;;2.47;;
59388;SDS011;51830;45.202;19.720;2023-04-25T08:36:34;5.35;;;2.03;;
59388;SDS011;51830;45.202;19.720;2023-04-25T08:39:01;10.20;;;2.38;;
59388;SDS011;51830;45.202;19.720;2023-04-25T08:41:27;8.45;;;2.40;;
59388;SDS011;51830;45.202;19.720;2023-04-25T08:43:54;5.57;;;1.90;;
59388;SDS011;51830;45.202;19.720;2023-04-25T08:46:25;15.65;;;2.20;;
59388;SDS011;51830;45.202;19.720;2023-04-25T08:48:52;5.07;;;2.00;;
59388;SDS011;51830;45.202;19.720;2023-04-25T08:51:22;8.35;;;2.50;;
59388;SDS011;51830;45.202;19.720;2023-04-25T08:53:53;9.02;;;2.30;;
59388;SDS011;51830;45.202;19.720;2023-04-25T08:56:19;7.05;;;2.33;;
59388;SDS011;51830;45.202;19.720;2023-04-25T08:58:47;13.77;;;2.70;;
59388;SDS011;51830;45.202;19.720;2023-04-25T09:01:15;12.73;;;2.63;;
59388;SDS011;51830;45.202;19.720;2023-04-25T09:03:42;6.82;;;1.95;;
59388;SDS011;51830;45.202;19.720;2023-04-25T09:06:10;8.95;;;1.95;;
59388;SDS011;51830;45.202;19.720;2023-04-25T09:08:37;4.07;;;1.65;;
59388;SDS011;51830;45.202;19.720;2023-04-25T09:11:05;8.00;;;2.05;;
59388;SDS011;51830;45.202;19.720;2023-04-25T09:13:32;7.65;;;2.35;;
59388;SDS011;51830;45.202;19.720;2023-04-25T09:15:58;8.73;;;2.20;;
59388;SDS011;51830;45.202;19.720;2023-04-25T09:18:26;7.75;;;2.13;;
59388;SDS011;51830;45.202;19.720;2023-04-25T09:21:13;5.15;;;2.10;;
59388;SDS011;51830;45.202;19.720;2023-04-25T09:23:43;7.22;;;2.13;;
59388;SDS011;51830;45.202;19.720;2023-04-25T09:26:10;6.45;;;1.98;;
59388;SDS011;51830;45.202;19.720;2023-04-25T09:28:40;6.53;;;2.05;;
59388;SDS011;51830;45.202;19.720;2023-04-25T09:31:09;7.18;;;2.00;;
59388;SDS011;51830;45.202;19.720;2023-04-25T09:33:36;5.45;;;1.77;;
59388;SDS011;51830;45.202;19.720;2023-04-25T09:36:04;4.18;;;1.58;;
59388;SDS011;51830;45.202;19.720;2023-04-25T09:38:31;6.43;;;2.08;;
59388;SDS011;51830;45.202;19.720;2023-04-25T09:40:58;7.15;;;1.65;;
59388;SDS011;51830;45.202;19.720;2023-04-25T09:43:26;6.00;;;1.95;;
59388;SDS011;51830;45.202;19.720;2023-04-25T09:45:53;5.28;;;1.77;;
59388;SDS011;51830;45.202;19.720;2023-04-25T09:48:22;4.53;;;2.00;;
59388;SDS011;51830;45.202;19.720;2023-04-25T09:53:37;4.75;;;1.88;;
59388;SDS011;51830;45.202;19.720;2023-04-25T09:56:03;5.50;;;1.83;;
59388;SDS011;51830;45.202;19.720;2023-04-25T09:58:30;6.38;;;1.88;;
59388;SDS011;51830;45.202;19.720;2023-04-25T10:00:59;7.50;;;2.00;;
59388;SDS011;51830;45.202;19.720;2023-04-25T10:03:26;6.32;;;1.90;;
59388;SDS011;51830;45.202;19.720;2023-04-25T10:05:55;11.15;;;2.20;;
59388;SDS011;51830;45.202;19.720;2023-04-25T10:08:24;9.20;;;2.13;;
59388;SDS011;51830;45.202;19.720;2023-04-25T10:10:51;5.22;;;1.88;;
59388;SDS011;51830;45.202;19.720;2023-04-25T10:13:17;5.53;;;2.10;;
59388;SDS011;51830;45.202;19.720;2023-04-25T10:15:44;3.35;;;1.55;;
59388;SDS011;51830;45.202;19.720;2023-04-25T10:18:11;4.40;;;1.50;;
59388;SDS011;51830;45.202;19.720;2023-04-25T10:20:38;5.43;;;1.95;;
59388;SDS011;51830;45.202;19.720;2023-04-25T10:23:11;6.43;;;2.05;;
59388;SDS011;51830;45.202;19.720;2023-04-25T10:25:38;6.53;;;2.08;;
59388;SDS011;51830;45.202;19.720;2023-04-25T10:28:05;5.90;;;2.00;;
59388;SDS011;51830;45.202;19.720;2023-04-25T10:30:31;3.90;;;1.50;;
59388;SDS011;51830;45.202;19.720;2023-04-25T10:32:58;13.75;;;1.77;;
59388;SDS011;51830;45.202;19.720;2023-04-25T10:35:28;7.47;;;1.83;;
59388;SDS011;51830;45.202;19.720;2023-04-25T10:38:05;6.55;;;2.00;;
59388;SDS011;51830;45.202;19.720;2023-04-25T10:40:31;4.45;;;1.67;;
59388;SDS011;51830;45.202;19.720;2023-04-25T10:43:41;5.88;;;2.00;;
59388;SDS011;51830;45.202;19.720;2023-04-25T10:45:51;8.00;;;2.15;;
59388;SDS011;51830;45.202;19.720;2023-04-25T10:48:27;9.40;;;2.00;;
59388;SDS011;51830;45.202;19.720;2023-04-25T10:51:09;6.80;;;1.90;;
59388;SDS011;51830;45.202;19.720;2023-04-25T10:53:36;6.95;;;2.08;;
59388;SDS011;51830;45.202;19.720;2023-04-25T10:56:11;6.78;;;2.15;;
59388;SDS011;51830;45.202;19.720;2023-04-25T10:58:47;6.22;;;2.05;;
59388;SDS011;51830;45.202;19.720;2023-04-25T11:01:13;6.30;;;1.67;;
59388;SDS011;51830;45.202;19.720;2023-04-25T11:03:40;6.15;;;1.70;;
59388;SDS011;51830;45.202;19.720;2023-04-25T11:06:22;5.88;;;1.83;;
59388;SDS011;51830;45.202;19.720;2023-04-25T11:08:49;5.38;;;1.80;;
59388;SDS011;51830;45.202;19.720;2023-04-25T11:11:16;5.22;;;1.88;;
59388;SDS011;51830;45.202;19.720;2023-04-25T11:13:43;4.72;;;1.65;;
59388;SDS011;51830;45.202;19.720;2023-04-25T11:16:09;6.82;;;2.00;;
59388;SDS011;51830;45.202;19.720;2023-04-25T11:18:36;4.22;;;1.73;;
59388;SDS011;51830;45.202;19.720;2023-04-25T11:21:03;8.63;;;1.95;;
59388;SDS011;51830;45.202;19.720;2023-04-25T11:23:30;3.92;;;1.75;;
59388;SDS011;51830;45.202;19.720;2023-04-25T11:25:56;6.35;;;1.63;;
59388;SDS011;51830;45.202;19.720;2023-04-25T11:28:22;3.60;;;1.40;;
59388;SDS011;51830;45.202;19.720;2023-04-25T11:30:49;5.65;;;1.73;;
59388;SDS011;51830;45.202;19.720;2023-04-25T11:33:15;5.22;;;1.67;;
59388;SDS011;51830;45.202;19.720;2023-04-25T11:35:42;5.60;;;1.90;;
59388;SDS011;51830;45.202;19.720;2023-04-25T11:38:08;5.75;;;1.90;;
59388;SDS011;51830;45.202;19.720;2023-04-25T11:40:35;6.22;;;1.95;;
59388;SDS011;51830;45.202;19.720;2023-04-25T11:43:01;5.45;;;1.75;;
59388;SDS011;51830;45.202;19.720;2023-04-25T11:45:28;4.65;;;1.65;;
59388;SDS011;51830;45.202;19.720;2023-04-25T11:47:56;3.88;;;1.67;;
59388;SDS011;51830;45.202;19.720;2023-04-25T11:50:22;6.05;;;1.73;;
59388;SDS011;51830;45.202;19.720;2023-04-25T11:52:48;4.22;;;1.75;;
59388;SDS011;51830;45.202;19.720;2023-04-25T11:55:19;4.25;;;1.77;;
59388;SDS011;51830;45.202;19.720;2023-04-25T11:57:46;5.30;;;1.70;;
59388;SDS011;51830;45.202;19.720;2023-04-25T12:00:17;7.43;;;2.10;;
59388;SDS011;51830;45.202;19.720;2023-04-25T12:02:50;6.93;;;1.90;;
59388;SDS011;51830;45.202;19.720;2023-04-25T12:05:17;6.75;;;2.05;;
59388;SDS011;51830;45.202;19.720;2023-04-25T12:07:43;2.72;;;1.33;;
59388;SDS011;51830;45.202;19.720;2023-04-25T12:10:12;4.90;;;1.65;;
59388;SDS011;51830;45.202;19.720;2023-04-25T12:12:43;10.20;;;1.90;;
59388;SDS011;51830;45.202;19.720;2023-04-25T12:15:10;4.05;;;1.80;;
59388;SDS011;51830;45.202;19.720;2023-04-25T12:17:36;3.78;;;1.50;;
59388;SDS011;51830;45.202;19.720;2023-04-25T12:20:07;6.25;;;2.10;;
59388;SDS011;51830;45.202;19.720;2023-04-25T12:22:34;7.78;;;2.13;;
59388;SDS011;51830;45.202;19.720;2023-04-25T12:25:01;8.05;;;2.20;;
59388;SDS011;51830;45.202;19.720;2023-04-25T12:27:30;5.13;;;1.80;;
59388;SDS011;51830;45.202;19.720;2023-04-25T12:29:57;5.20;;;2.05;;
59388;SDS011;51830;45.202;19.720;2023-04-25T12:32:23;4.63;;;1.52;;
59388;SDS011;51830;45.202;19.720;2023-04-25T12:34:51;6.68;;;1.80;;
59388;SDS011;51830;45.202;19.720;2023-04-25T12:37:17;4.53;;;1.45;;
59388;SDS011;51830;45.202;19.720;2023-04-25T12:39:43;7.32;;;1.73;;
59388;SDS011;51830;45.202;19.720;2023-04-25T12:42:10;5.63;;;1.90;;
59388;SDS011;51830;45.202;19.720;2023-04-25T12:44:39;3.42;;;1.50;;
59388;SDS011;51830;45.202;19.720;2023-04-25T12:47:06;8.55;;;2.17;;
59388;SDS011;51830;45.202;19.720;2023-04-25T12:49:32;7.75;;;2.10;;
59388;SDS011;51830;45.202;19.720;2023-04-25T12:51:58;4.38;;;1.75;;
59388;SDS011;51830;45.202;19.720;2023-04-25T12:54:24;10.00;;;1.88;;
59388;SDS011;51830;45.202;19.720;2023-04-25T12:56:51;9.10;;;1.92;;
59388;SDS011;51830;45.202;19.720;2023-04-25T12:59:17;6.57;;;2.20;;
59388;SDS011;51830;45.202;19.720;2023-04-25T13:01:45;4.10;;;1.65;;
59388;SDS011;51830;45.202;19.720;2023-04-25T13:04:11;7.60;;;1.75;;
59388;SDS011;51830;45.202;19.720;2023-04-25T13:06:37;5.88;;;1.90;;
59388;SDS011;51830;45.202;19.720;2023-04-25T13:09:03;5.35;;;1.92;;
59388;SDS011;51830;45.202;19.720;2023-04-25T13:11:30;8.68;;;1.95;;
59388;SDS011;51830;45.202;19.720;2023-04-25T13:13:56;5.68;;;1.92;;
59388;SDS011;51830;45.202;19.720;2023-04-25T13:16:22;2.53;;;1.45;;
59388;SDS011;51830;45.202;19.720;2023-04-25T13:18:48;6.35;;;1.83;;
59388;SDS011;51830;45.202;19.720;2023-04-25T13:21:15;5.63;;;1.77;;
59388;SDS011;51830;45.202;19.720;2023-04-25T13:23:41;7.32;;;1.77;;
59388;SDS011;51830;45.202;19.720;2023-04-25T13:26:11;5.18;;;1.80;;
59388;SDS011;51830;45.202;19.720;2023-04-25T13:28:37;7.78;;;1.90;;
59388;SDS011;51830;45.202;19.720;2023-04-25T13:31:05;5.57;;;1.90;;
59388;SDS011;51830;45.202;19.720;2023-04-25T13:33:31;2.85;;;1.42;;
59388;SDS011;51830;45.202;19.720;2023-04-25T13:36:00;7.00;;;1.95;;
59388;SDS011;51830;45.202;19.720;2023-04-25T13:38:26;7.85;;;2.20;;
59388;SDS011;51830;45.202;19.720;2023-04-25T13:40:52;8.07;;;1.70;;
59388;SDS011;51830;45.202;19.720;2023-04-25T13:43:19;6.63;;;2.00;;
59388;SDS011;51830;45.202;19.720;2023-04-25T13:45:49;7.20;;;2.00;;
59388;SDS011;51830;45.202;19.720;2023-04-25T13:48:16;5.53;;;1.80;;
59388;SDS011;51830;45.202;19.720;2023-04-25T13:50:42;5.55;;;2.00;;
59388;SDS011;51830;45.202;19.720;2023-04-25T13:53:08;6.95;;;2.10;;
59388;SDS011;51830;45.202;19.720;2023-04-25T13:55:35;8.13;;;1.85;;
59388;SDS011;51830;45.202;19.720;2023-04-25T13:58:02;2.97;;;1.55;;
59388;SDS011;51830;45.202;19.720;2023-04-25T14:00:33;8.63;;;1.75;;
59388;SDS011;51830;45.202;19.720;2023-04-25T14:02:59;6.72;;;2.00;;
59388;SDS011;51830;45.202;19.720;2023-04-25T14:05:25;3.80;;;1.73;;
59388;SDS011;51830;45.202;19.720;2023-04-25T14:07:52;6.60;;;2.40;;
59388;SDS011;51830;45.202;19.720;2023-04-25T14:10:18;4.35;;;1.83;;
59388;SDS011;51830;45.202;19.720;2023-04-25T14:12:44;2.20;;;1.20;;
59388;SDS011;51830;45.202;19.720;2023-04-25T14:15:10;5.80;;;1.88;;
59388;SDS011;51830;45.202;19.720;2023-04-25T14:17:36;4.43;;;1.58;;
59388;SDS011;51830;45.202;19.720;2023-04-25T14:20:03;5.75;;;1.70;;
59388;SDS011;51830;45.202;19.720;2023-04-25T14:22:31;5.47;;;1.85;;
59388;SDS011;51830;45.202;19.720;2023-04-25T14:24:57;3.35;;;1.67;;
59388;SDS011;51830;45.202;19.720;2023-04-25T14:27:23;6.80;;;1.80;;
59388;SDS011;51830;45.202;19.720;2023-04-25T14:29:50;8.70;;;2.20;;
59388;SDS011;51830;45.202;19.720;2023-04-25T14:32:16;7.07;;;2.08;;